createdAt,value
2018-07-09T00:01:35.896Z,75.80
2018-07-09T00:06:39.238Z,77.10
2018-07-09T00:11:42.573Z,78.40
2018-07-09T00:16:45.905Z,79.30
2018-07-09T00:21:49.234Z,79.50
2018-07-09T00:26:52.568Z,79.60
2018-07-09T00:31:55.885Z,80.50
2018-07-09T00:36:59.175Z,81.10
2018-07-09T00:42:02.595Z,83.10
2018-07-09T00:52:08.942Z,83.90
2018-07-09T00:57:12.261Z,84.50
2018-07-09T01:02:15.534Z,83.40
2018-07-09T01:07:18.846Z,84.50
2018-07-09T01:22:28.349Z,86.10
2018-07-09T01:27:31.643Z,87.40
2018-07-09T01:32:35.319Z,88.70
2018-07-09T01:37:39.244Z,90.00
2018-07-09T01:42:42.512Z,90.10
2018-07-09T01:47:45.799Z,90.30
2018-07-09T01:52:49.095Z,89.30
2018-07-09T01:57:52.375Z,88.40
2018-07-09T02:02:55.708Z,87.40
2018-07-09T02:07:59.024Z,86.80
2018-07-09T02:13:02.290Z,87.90
2018-07-09T02:18:05.665Z,88.20
2018-07-09T02:23:08.955Z,87.90
2018-07-09T02:28:12.212Z,88.40
2018-07-09T02:33:15.958Z,88.80
2018-07-09T02:38:19.214Z,89.30
2018-07-09T02:43:22.494Z,89.40
2018-07-09T02:48:25.759Z,90.40
2018-07-09T02:53:29.033Z,91.20
2018-07-09T02:58:32.289Z,91.50
2018-07-09T03:03:35.561Z,91.30
2018-07-09T03:08:38.836Z,91.60
2018-07-09T03:13:42.164Z,92.10
2018-07-09T03:18:45.419Z,92.20
2018-07-09T03:23:48.697Z,92.90
2018-07-09T03:28:52.517Z,93.90
2018-07-09T03:33:55.797Z,94.50
2018-07-09T03:38:59.060Z,94.90
2018-07-09T03:44:02.336Z,95.00
2018-07-09T03:49:05.673Z,95.40
2018-07-09T03:54:09.409Z,95.10
2018-07-09T03:59:12.672Z,94.90
2018-07-09T04:04:15.946Z,95.10
2018-07-09T04:09:19.217Z,95.30
2018-07-09T04:14:22.476Z,95.50
2018-07-09T04:19:25.754Z,95.60
2018-07-09T04:24:29.035Z,96.20
2018-07-09T04:29:32.368Z,96.20
2018-07-09T04:34:35.653Z,96.00
2018-07-09T04:39:42.036Z,96.60
2018-07-09T04:44:45.322Z,97.30
2018-07-09T04:49:48.646Z,97.30
2018-07-09T04:54:51.901Z,97.00
2018-07-09T04:59:55.271Z,96.90
2018-07-09T05:04:58.564Z,96.70
2018-07-09T05:10:01.864Z,96.90
2018-07-09T05:15:05.128Z,97.20
2018-07-09T05:20:08.416Z,97.90
2018-07-09T05:25:15.406Z,97.70
2018-07-09T05:30:18.681Z,96.70
2018-07-09T05:35:21.936Z,97.60
2018-07-09T05:40:25.220Z,96.00
2018-07-09T05:45:28.792Z,95.00
2018-07-09T05:50:32.107Z,94.30
2018-07-09T05:55:35.361Z,93.50
2018-07-09T06:00:38.654Z,93.10
2018-07-09T06:05:41.938Z,93.10
2018-07-09T06:10:45.229Z,93.60
2018-07-09T06:15:48.526Z,90.80
2018-07-09T06:30:57.988Z,82.00
2018-07-09T06:36:01.284Z,81.60
2018-07-09T06:41:04.541Z,81.70
2018-07-09T06:46:07.840Z,78.30
2018-07-09T06:51:11.098Z,79.60
2018-07-09T06:56:14.382Z,77.50
2018-07-09T07:01:17.685Z,74.30
2018-07-09T07:06:20.999Z,74.80
2018-07-09T07:11:24.305Z,77.40
2018-07-09T07:16:27.597Z,71.80
2018-07-09T07:21:30.920Z,70.70
2018-07-09T07:26:34.188Z,69.10
2018-07-09T07:31:37.544Z,67.20
2018-07-09T07:36:40.899Z,63.80
2018-07-09T07:41:44.714Z,68.10
2018-07-09T07:46:48.022Z,61.30
2018-07-09T07:51:51.304Z,62.10
2018-07-09T07:56:54.577Z,59.30
2018-07-09T08:01:57.865Z,56.90
2018-07-09T08:07:01.624Z,57.30
2018-07-09T08:12:59.657Z,55.40
2018-07-09T08:17:08.240Z,59.50
2018-07-09T08:22:11.591Z,59.20
2018-07-09T08:27:14.881Z,61.00
2018-07-09T08:32:18.147Z,58.60
2018-07-09T08:42:24.414Z,56.00
2018-07-09T08:47:27.799Z,52.90
2018-07-09T08:52:31.075Z,52.60
2018-07-09T08:57:34.476Z,46.70
2018-07-09T09:02:37.737Z,53.50
2018-07-09T09:07:41.014Z,54.60
2018-07-09T09:12:44.275Z,54.90
2018-07-09T09:17:47.531Z,53.80
2018-07-09T09:27:53.871Z,51.10
2018-07-09T09:32:57.136Z,48.20
2018-07-09T09:38:00.405Z,49.90
2018-07-09T09:43:03.869Z,51.90
2018-07-09T09:48:07.140Z,50.10
2018-07-09T09:53:10.416Z,48.90
2018-07-09T09:58:13.676Z,48.90
2018-07-09T10:03:16.936Z,46.40
2018-07-09T10:13:23.261Z,46.70
2018-07-09T10:18:26.521Z,48.80
2018-07-09T10:23:29.871Z,46.90
2018-07-09T10:28:33.718Z,43.00
2018-07-09T10:33:36.967Z,42.20
2018-07-09T10:38:40.267Z,37.40
2018-07-09T10:43:44.801Z,37.50
2018-07-09T10:48:48.167Z,37.80
2018-07-09T10:58:54.570Z,43.50
2018-07-09T11:03:57.863Z,44.70
2018-07-09T11:09:01.221Z,45.20
2018-07-09T11:14:04.481Z,40.50
2018-07-09T11:19:07.860Z,37.40
2018-07-09T11:24:11.157Z,38.00
2018-07-09T11:29:15.106Z,41.80
2018-07-09T11:34:19.141Z,44.10
2018-07-09T11:39:23.069Z,44.70
2018-07-09T11:44:27.870Z,43.80
2018-07-09T11:49:32.089Z,45.00
2018-07-09T11:54:36.322Z,45.90
2018-07-09T11:59:41.342Z,46.40
2018-07-09T12:04:45.593Z,47.40
2018-07-09T12:09:48.863Z,49.00
2018-07-09T12:14:52.388Z,47.60
2018-07-09T12:19:56.397Z,48.20
2018-07-09T12:24:59.845Z,49.90
2018-07-09T12:30:03.697Z,46.80
2018-07-09T12:35:07.535Z,47.30
2018-07-09T12:40:11.257Z,44.60
2018-07-09T12:50:18.256Z,46.50
2018-07-09T12:55:22.051Z,45.90
2018-07-09T13:00:28.443Z,46.40
2018-07-09T13:05:32.643Z,46.10
2018-07-09T13:10:36.775Z,44.30
2018-07-09T13:15:41.323Z,44.30
2018-07-09T13:20:45.384Z,46.20
2018-07-09T13:25:49.464Z,46.60
2018-07-09T13:30:53.566Z,43.70
2018-07-09T13:41:01.013Z,46.70
2018-07-09T13:46:04.298Z,42.90
2018-07-09T13:51:08.052Z,40.60
2018-07-09T13:56:11.748Z,42.00
2018-07-09T14:01:15.564Z,46.50
2018-07-09T14:06:19.080Z,46.80
2018-07-09T14:11:23.081Z,48.90
2018-07-09T14:21:31.633Z,48.30
2018-07-09T14:26:35.393Z,48.90
2018-07-09T14:31:39.128Z,48.90
2018-07-09T14:36:44.241Z,48.00
2018-07-09T14:41:48.892Z,48.60
2018-07-09T14:46:52.753Z,48.50
2018-07-09T14:51:57.368Z,48.90
2018-07-09T15:02:04.703Z,49.80
2018-07-09T15:22:17.020Z,49.20
2018-07-09T15:27:20.292Z,47.50
2018-07-09T15:32:28.133Z,44.20
2018-07-09T15:37:31.390Z,43.10
2018-07-09T15:42:34.772Z,42.60
2018-07-09T16:02:50.400Z,47.10
2018-07-09T16:18:01.125Z,48.20
2018-07-09T16:23:05.270Z,48.70
2018-07-09T16:33:12.137Z,50.50
2018-07-09T16:43:18.980Z,50.90
2018-07-09T16:53:30.092Z,52.30
2018-07-09T16:58:33.956Z,53.30
2018-07-09T17:03:38.129Z,53.80
2018-07-09T17:23:53.950Z,56.80
2018-07-09T17:34:01.909Z,57.00
2018-07-09T17:44:08.872Z,57.50
2018-07-09T17:54:15.081Z,57.40
2018-07-09T17:59:18.352Z,57.90
2018-07-09T18:04:21.922Z,57.60
2018-07-09T18:09:26.062Z,57.80
2018-07-09T18:14:30.649Z,57.00
2018-07-09T18:19:34.512Z,57.40
2018-07-09T18:24:38.096Z,57.40
2018-07-09T18:29:42.218Z,58.00
2018-07-09T18:34:46.457Z,57.90
2018-07-09T18:39:50.382Z,58.10
2018-07-09T18:44:54.114Z,58.40
2018-07-09T18:49:58.954Z,59.00
2018-07-09T18:55:02.417Z,60.10
2018-07-09T19:00:05.953Z,61.00
2018-07-09T19:05:09.286Z,60.80
2018-07-09T19:10:12.664Z,60.80
2018-07-09T19:15:15.908Z,61.20
2018-07-09T19:20:30.386Z,61.80
2018-07-09T19:25:33.644Z,62.60
2018-07-09T19:30:35.888Z,63.20
2018-07-09T19:35:38.140Z,63.70
2018-07-09T19:40:40.420Z,64.30
2018-07-09T19:45:42.690Z,64.70
2018-07-09T19:50:45.298Z,65.00
2018-07-09T19:55:47.584Z,65.40
2018-07-09T20:00:50.218Z,65.60
2018-07-09T20:05:52.492Z,65.90
2018-07-09T20:11:00.157Z,67.30
2018-07-09T20:16:07.916Z,66.50
2018-07-09T20:21:10.164Z,67.00
2018-07-09T20:26:12.557Z,67.80
2018-07-09T20:31:14.809Z,67.50
2018-07-09T20:36:17.664Z,67.70
2018-07-09T20:41:20.014Z,67.60
2018-07-09T20:51:25.940Z,67.20
2018-07-09T20:56:28.228Z,67.80
2018-07-09T21:01:30.470Z,67.10
2018-07-09T21:06:32.748Z,66.80
2018-07-09T21:11:34.992Z,66.40
2018-07-09T21:16:37.275Z,66.40
2018-07-09T21:21:39.543Z,66.00
2018-07-09T21:31:44.318Z,65.20
2018-07-09T21:36:47.053Z,65.50
2018-07-09T21:41:49.292Z,65.80
2018-07-09T21:46:51.684Z,66.40
2018-07-09T21:51:53.945Z,65.90
2018-07-09T21:56:56.202Z,66.10
2018-07-09T22:01:58.639Z,66.00
2018-07-09T22:07:01.407Z,66.50
2018-07-09T22:12:03.717Z,66.70
2018-07-09T22:17:06.273Z,66.80
2018-07-09T22:22:09.077Z,66.90
2018-07-09T22:27:12.001Z,67.10
2018-07-09T22:32:15.947Z,66.80
2018-07-09T22:37:20.537Z,66.00
2018-07-09T22:42:23.804Z,64.80
2018-07-09T22:52:31.162Z,65.20
2018-07-09T22:57:35.104Z,65.50
2018-07-09T23:02:38.373Z,65.90
2018-07-09T23:07:42.255Z,64.10
2018-07-09T23:12:55.577Z,63.80
2018-07-09T23:18:10.694Z,63.20
2018-07-09T23:23:13.356Z,63.70
2018-07-09T23:28:15.613Z,64.40
2018-07-09T23:33:18.153Z,65.00
2018-07-09T23:38:21.310Z,64.30
2018-07-09T23:43:24.181Z,62.60
2018-07-09T23:48:26.869Z,61.10
2018-07-09T23:53:29.913Z,61.70
2018-07-09T23:59:43.877Z,61.50
